CheckWX is a tool to help pilots better visualize weather data.  It is not intended as a substitute for an official pre-flight weather briefing.

18:00:18 UTC

KHWO METAR
North Perry Airport
Hollywood, Florida, USA
Current

1 hour ago

KHWO 171653Z AUTO 17012KT 10SM SCT039 29/19 A3004 RMK AO2 SLP171 T02890189
Observed
Feb-17 @ 16:53 UTC
Wind
  • 170° at 12 KTS
Visibility
10 SM
Flight Rules
VFR
Cloud Levels
  • Scattered at 3,900' AGL
Temperature
29°C / 84°F
Dewpoint
19°C / 66°F
Humidity
55%
Altimeter
30.04" Hg
Pressure
1017.1 hPa
Previous

2 hours ago

KHWO 171553Z AUTO 16009KT 10SM CLR 28/18 A3005 RMK AO2 SLP176 T02830183 $
Observed
Feb-17 @ 15:53 UTC
Wind
  • 160° at 9 KTS
Visibility
10 SM
Flight Rules
VFR
Cloud Levels
  • Clear skies
Temperature
28°C / 82°F
Dewpoint
18°C / 64°F
Humidity
55%
Altimeter
30.05" Hg
Pressure
1017.6 hPa
Previous

3 hours ago

KHWO 171453Z AUTO 17009KT 10SM CLR 27/19 A3006 RMK AO2 SLP177 T02670194 50012 $
Observed
Feb-17 @ 14:53 UTC
Wind
  • 170° at 9 KTS
Visibility
10 SM
Flight Rules
VFR
Cloud Levels
  • Clear skies
Temperature
27°C / 81°F
Dewpoint
19°C / 66°F
Humidity
62%
Altimeter
30.06" Hg
Pressure
1017.7 hPa